Time;durP1;ratioP1;P1;durP2;ratioP2;P2;SDS_P1;SDS_P2;PMS_P1;PMS_P2;Temp;Humidity;BMP_temperature;BMP_pressure;BME280_temperature;BME280_humidity;BME280_pressure;Samples;Min_cycle;Max_cycle;Signal;HPM_P1;HPM_P2
2024/01/06 00:00:23;;;;;;;17.33;9.02;;;;;;;;;;1036831;28;20049;-63
2024/01/06 00:01:15;;;;;;;14.68;9.80;;;;;;;;;;1035205;28;20065;-65
2024/01/06 00:01:48;;;;;;;16.33;9.40;;;;;;;;;;1037121;28;20045;-64
2024/01/06 00:02:18;;;;;;;12.95;8.30;;;;;;;;;;1037129;28;20045;-63
2024/01/06 00:02:49;;;;;;;15.73;9.57;;;;;;;;;;1036156;28;20119;-64
2024/01/06 00:03:19;;;;;;;15.30;8.75;;;;;;;;;;1036461;28;20803;-64
2024/01/06 00:03:50;;;;;;;15.43;9.02;;;;;;;;;;1036540;28;20095;-64
2024/01/06 00:04:20;;;;;;;17.58;10.40;;;;;;;;;;1035918;28;20037;-65
2024/01/06 00:04:51;;;;;;;17.58;9.35;;;;;;;;;;1035885;28;20391;-65
2024/01/06 00:05:21;;;;;;;17.27;9.93;;;;;;;;;;1038463;28;20485;-64
2024/01/06 00:05:52;;;;;;;15.32;9.48;;;;;;;;;;1038949;28;20049;-64
2024/01/06 00:06:22;;;;;;;13.70;8.95;;;;;;;;;;1038827;28;20088;-64
2024/01/06 00:06:53;;;;;;;15.95;9.45;;;;;;;;;;1039248;28;20052;-65
2024/01/06 00:07:24;;;;;;;16.63;10.30;;;;;;;;;;1037661;28;20034;-64
2024/01/06 00:07:54;;;;;;;16.65;9.55;;;;;;;;;;1036223;28;20053;-65
2024/01/06 00:08:25;;;;;;;17.38;10.02;;;;;;;;;;1037167;28;20168;-64
2024/01/06 00:08:55;;;;;;;15.90;9.75;;;;;;;;;;1036885;28;20061;-64
2024/01/06 00:09:26;;;;;;;17.38;9.25;;;;;;;;;;1035737;28;20053;-65
2024/01/06 00:09:56;;;;;;;14.88;9.45;;;;;;;;;;1036078;28;20215;-64
2024/01/06 00:10:27;;;;;;;21.08;10.02;;;;;;;;;;1035253;28;20402;-65
2024/01/06 00:10:57;;;;;;;14.45;8.98;;;;;;;;;;1036852;28;20064;-64
2024/01/06 00:11:28;;;;;;;18.63;9.43;;;;;;;;;;1035938;28;20139;-65
2024/01/06 00:11:59;;;;;;;17.55;10.18;;;;;;;;;;1037378;28;20112;-64
2024/01/06 00:12:29;;;;;;;15.73;9.95;;;;;;;;;;1036580;28;20057;-65
2024/01/06 00:13:00;;;;;;;16.80;9.23;;;;;;;;;;1036378;28;20097;-65
2024/01/06 00:13:30;;;;;;;17.23;9.95;;;;;;;;;;1036654;28;20049;-65
2024/01/06 00:14:01;;;;;;;15.68;9.70;;;;;;;;;;1035667;28;20057;-63
2024/01/06 00:14:31;;;;;;;21.27;10.05;;;;;;;;;;1036328;28;20053;-64
2024/01/06 00:15:03;;;;;;;18.73;10.07;;;;;;;;;;1036640;28;20056;-64
2024/01/06 00:15:33;;;;;;;14.50;9.07;;;;;;;;;;1033833;28;20453;-65
2024/01/06 00:16:04;;;;;;;16.02;9.40;;;;;;;;;;1036068;28;21172;-64
2024/01/06 00:16:34;;;;;;;18.77;10.52;;;;;;;;;;1036016;28;20045;-64
2024/01/06 00:17:05;;;;;;;20.05;10.57;;;;;;;;;;1036624;28;20174;-64
2024/01/06 00:17:35;;;;;;;20.27;10.57;;;;;;;;;;1036755;28;20049;-63
2024/01/06 00:18:06;;;;;;;19.25;10.23;;;;;;;;;;1035355;28;20060;-65
2024/01/06 00:18:36;;;;;;;17.25;9.55;;;;;;;;;;1035245;28;20045;-64
2024/01/06 00:19:07;;;;;;;18.25;10.25;;;;;;;;;;1036216;28;20642;-65
2024/01/06 00:19:38;;;;;;;17.10;9.82;;;;;;;;;;1036699;28;20060;-64
2024/01/06 00:20:09;;;;;;;17.23;9.80;;;;;;;;;;1035197;28;20179;-65
2024/01/06 00:20:39;;;;;;;19.25;10.65;;;;;;;;;;1036766;28;20160;-64
2024/01/06 00:21:10;;;;;;;17.83;9.75;;;;;;;;;;1036144;28;20029;-64
2024/01/06 00:21:40;;;;;;;18.73;10.23;;;;;;;;;;1034639;28;20050;-64
2024/01/06 00:22:10;;;;;;;19.55;9.98;;;;;;;;;;1037263;28;20056;-64
2024/01/06 00:22:43;;;;;;;18.83;10.63;;;;;;;;;;1034773;28;20059;-64
2024/01/06 00:23:14;;;;;;;18.30;10.25;;;;;;;;;;1033627;28;20210;-65
2024/01/06 00:23:44;;;;;;;19.67;10.90;;;;;;;;;;1035625;28;20171;-63
2024/01/06 00:24:15;;;;;;;30.70;11.00;;;;;;;;;;1036013;28;20062;-63
2024/01/06 00:24:45;;;;;;;17.85;10.18;;;;;;;;;;1035934;28;20053;-64
2024/01/06 00:25:16;;;;;;;18.50;10.88;;;;;;;;;;1034480;28;20653;-65
2024/01/06 00:25:47;;;;;;;25.10;11.13;;;;;;;;;;1035367;28;20584;-64
2024/01/06 00:26:17;;;;;;;19.45;10.65;;;;;;;;;;1035046;28;20053;-65
2024/01/06 00:26:48;;;;;;;16.52;10.43;;;;;;;;;;1036838;28;20090;-64
2024/01/06 00:27:18;;;;;;;18.17;9.60;;;;;;;;;;1037028;28;20057;-64
2024/01/06 00:27:49;;;;;;;17.52;9.32;;;;;;;;;;1034702;28;20150;-64
2024/01/06 00:28:20;;;;;;;18.77;10.07;;;;;;;;;;1035855;28;20041;-64
2024/01/06 00:28:50;;;;;;;16.67;10.63;;;;;;;;;;1034760;28;20754;-64
2024/01/06 00:29:21;;;;;;;18.85;9.93;;;;;;;;;;1036632;28;20136;-65
2024/01/06 00:29:51;;;;;;;18.48;9.95;;;;;;;;;;1035817;28;20049;-64
2024/01/06 00:30:22;;;;;;;18.55;10.45;;;;;;;;;;1035212;28;20061;-64
2024/01/06 00:30:53;;;;;;;22.75;11.38;;;;;;;;;;1036347;28;20041;-64
2024/01/06 00:31:23;;;;;;;18.85;11.05;;;;;;;;;;1035775;28;20410;-66
2024/01/06 00:31:54;;;;;;;21.50;11.38;;;;;;;;;;1036473;28;20056;-65
2024/01/06 00:32:24;;;;;;;18.90;10.43;;;;;;;;;;1034788;28;20057;-63
2024/01/06 00:32:55;;;;;;;19.73;11.00;;;;;;;;;;1035559;28;20042;-63
2024/01/06 00:33:25;;;;;;;20.73;11.15;;;;;;;;;;1034784;28;20058;-64
2024/01/06 00:33:56;;;;;;;21.45;10.45;;;;;;;;;;1037079;28;20057;-64
2024/01/06 00:34:26;;;;;;;19.55;10.23;;;;;;;;;;1036840;28;20054;-63
2024/01/06 00:34:57;;;;;;;22.17;11.63;;;;;;;;;;1036352;28;20430;-64
2024/01/06 00:35:27;;;;;;;19.90;10.63;;;;;;;;;;1033616;28;20088;-63
2024/01/06 00:35:58;;;;;;;18.08;10.25;;;;;;;;;;1037059;28;20078;-64
2024/01/06 00:36:29;;;;;;;20.85;9.82;;;;;;;;;;1035913;28;20267;-63
2024/01/06 00:36:59;;;;;;;26.40;11.52;;;;;;;;;;1037398;28;20496;-64
2024/01/06 00:37:30;;;;;;;24.83;12.02;;;;;;;;;;1035705;28;20064;-64
2024/01/06 00:38:00;;;;;;;19.73;11.07;;;;;;;;;;1036956;28;20050;-65
2024/01/06 00:38:31;;;;;;;20.27;10.98;;;;;;;;;;1036823;28;20772;-65
2024/01/06 00:39:03;;;;;;;17.33;10.63;;;;;;;;;;1035768;28;20057;-64
2024/01/06 00:39:34;;;;;;;20.65;11.20;;;;;;;;;;1037214;28;20108;-64
2024/01/06 00:40:05;;;;;;;18.73;10.80;;;;;;;;;;1035381;28;20096;-63
2024/01/06 00:40:35;;;;;;;22.33;11.73;;;;;;;;;;1036992;28;20115;-64
2024/01/06 00:41:06;;;;;;;19.70;11.13;;;;;;;;;;1036206;28;20463;-64
2024/01/06 00:41:36;;;;;;;18.65;10.60;;;;;;;;;;1035899;28;20458;-64
2024/01/06 00:42:07;;;;;;;17.65;10.65;;;;;;;;;;1035963;28;20230;-64
2024/01/06 00:42:38;;;;;;;21.95;11.20;;;;;;;;;;1035458;28;20056;-64
2024/01/06 00:43:08;;;;;;;18.08;10.63;;;;;;;;;;1037294;28;20156;-65
2024/01/06 00:43:39;;;;;;;20.70;10.70;;;;;;;;;;1035174;28;20054;-64
2024/01/06 00:44:09;;;;;;;20.17;11.15;;;;;;;;;;1037059;28;20127;-65
2024/01/06 00:44:40;;;;;;;17.77;9.82;;;;;;;;;;1036334;28;20176;-64
2024/01/06 00:45:10;;;;;;;19.00;10.32;;;;;;;;;;1037108;28;20057;-64
2024/01/06 00:45:41;;;;;;;20.27;10.35;;;;;;;;;;1036472;28;20073;-63
2024/01/06 00:46:11;;;;;;;20.13;11.10;;;;;;;;;;1036639;28;20037;-64
2024/01/06 00:46:42;;;;;;;18.13;10.18;;;;;;;;;;1034686;28;20769;-65
2024/01/06 00:47:12;;;;;;;21.00;11.15;;;;;;;;;;1037936;28;20053;-64
2024/01/06 00:47:43;;;;;;;18.95;10.38;;;;;;;;;;1036414;28;20107;-65
2024/01/06 00:48:13;;;;;;;17.55;10.85;;;;;;;;;;1036503;28;20056;-63
2024/01/06 00:48:44;;;;;;;19.27;10.70;;;;;;;;;;1036047;28;20111;-64
2024/01/06 00:49:14;;;;;;;18.73;10.77;;;;;;;;;;1036979;28;20132;-64
2024/01/06 00:49:45;;;;;;;20.55;11.38;;;;;;;;;;1035172;28;20088;-64
2024/01/06 00:50:18;;;;;;;20.15;10.90;;;;;;;;;;1036072;28;20033;-64
2024/01/06 00:50:48;;;;;;;20.17;11.10;;;;;;;;;;1036497;28;20068;-64
2024/01/06 00:51:19;;;;;;;15.63;10.27;;;;;;;;;;1037439;28;20068;-64
2024/01/06 00:51:50;;;;;;;17.67;10.52;;;;;;;;;;1037084;28;20042;-63
2024/01/06 00:52:20;;;;;;;18.95;10.45;;;;;;;;;;1034334;28;20497;-65
2024/01/06 00:52:52;;;;;;;19.35;10.27;;;;;;;;;;1037348;28;20080;-63
2024/01/06 00:53:23;;;;;;;18.55;11.43;;;;;;;;;;1035309;28;20056;-64
2024/01/06 00:53:54;;;;;;;19.38;10.73;;;;;;;;;;1035661;28;20052;-64
2024/01/06 00:54:24;;;;;;;21.90;11.68;;;;;;;;;;1035109;28;20172;-63
2024/01/06 00:54:55;;;;;;;22.85;11.93;;;;;;;;;;1035583;28;21981;-64
2024/01/06 00:55:25;;;;;;;15.82;9.65;;;;;;;;;;1035904;28;20053;-63
2024/01/06 00:55:56;;;;;;;19.65;10.75;;;;;;;;;;1036974;28;20688;-64
2024/01/06 00:56:27;;;;;;;21.02;10.65;;;;;;;;;;1036272;28;20054;-63
2024/01/06 00:56:57;;;;;;;19.45;10.98;;;;;;;;;;1034771;28;20049;-63
2024/01/06 00:57:28;;;;;;;20.52;11.25;;;;;;;;;;1036139;28;20056;-64
2024/01/06 00:57:58;;;;;;;18.95;10.93;;;;;;;;;;1036780;28;20100;-63
2024/01/06 00:58:29;;;;;;;19.33;10.85;;;;;;;;;;1035992;28;20752;-63
2024/01/06 00:58:59;;;;;;;18.88;11.05;;;;;;;;;;1035703;28;20112;-64
2024/01/06 00:59:30;;;;;;;21.73;11.38;;;;;;;;;;1037186;28;20057;-63
2024/01/06 01:00:00;;;;;;;19.48;11.75;;;;;;;;;;1037438;28;20056;-65
2024/01/06 01:00:31;;;;;;;20.23;11.02;;;;;;;;;;1036236;28;20080;-64
2024/01/06 01:01:01;;;;;;;19.10;10.68;;;;;;;;;;1036942;28;20057;-64
2024/01/06 01:01:32;;;;;;;16.65;10.65;;;;;;;;;;1036939;28;20045;-64
2024/01/06 01:02:03;;;;;;;22.73;12.88;;;;;;;;;;1037308;28;20164;-66
2024/01/06 01:02:33;;;;;;;19.60;11.40;;;;;;;;;;1035272;28;20795;-63
2024/01/06 01:03:04;;;;;;;20.13;11.98;;;;;;;;;;1036018;28;20148;-64
2024/01/06 01:03:34;;;;;;;22.35;11.13;;;;;;;;;;1033165;28;20104;-63
2024/01/06 01:04:05;;;;;;;22.92;12.75;;;;;;;;;;1037576;28;20049;-63
2024/01/06 01:04:35;;;;;;;22.05;11.68;;;;;;;;;;1034777;28;20053;-63
2024/01/06 01:05:09;;;;;;;19.33;10.95;;;;;;;;;;1036619;28;20042;-63
2024/01/06 01:05:39;;;;;;;20.25;12.02;;;;;;;;;;1034189;28;20049;-63
2024/01/06 01:06:10;;;;;;;24.48;13.13;;;;;;;;;;1034708;28;20057;-64
2024/01/06 01:06:40;;;;;;;22.75;12.40;;;;;;;;;;1034831;28;20041;-64
2024/01/06 01:07:12;;;;;;;22.63;11.32;;;;;;;;;;1036825;28;20045;-64
2024/01/06 01:07:42;;;;;;;23.58;12.85;;;;;;;;;;1035981;28;20052;-63
2024/01/06 01:08:13;;;;;;;26.35;12.73;;;;;;;;;;1037281;28;20060;-63
2024/01/06 01:08:45;;;;;;;22.70;12.23;;;;;;;;;;1035179;28;20050;-64
2024/01/06 01:09:15;;;;;;;22.40;12.57;;;;;;;;;;1035365;28;20125;-63
2024/01/06 01:09:46;;;;;;;23.42;12.35;;;;;;;;;;1034543;28;20053;-63
2024/01/06 01:10:16;;;;;;;22.65;11.90;;;;;;;;;;1035258;28;20124;-64
2024/01/06 01:10:47;;;;;;;22.77;12.02;;;;;;;;;;1034536;28;20061;-64
2024/01/06 01:11:18;;;;;;;19.88;12.05;;;;;;;;;;1035172;28;20049;-64
2024/01/06 01:11:48;;;;;;;25.00;12.77;;;;;;;;;;1037347;28;20920;-64
2024/01/06 01:12:19;;;;;;;26.00;13.10;;;;;;;;;;1035826;28;20512;-64
2024/01/06 01:12:49;;;;;;;23.60;13.27;;;;;;;;;;1036131;28;20060;-64
2024/01/06 01:13:20;;;;;;;22.90;12.50;;;;;;;;;;1037431;28;20046;-63
2024/01/06 01:13:50;;;;;;;23.23;12.23;;;;;;;;;;1035770;28;20057;-63
2024/01/06 01:14:21;;;;;;;24.50;12.52;;;;;;;;;;1036114;28;20132;-63
2024/01/06 01:14:53;;;;;;;23.52;13.15;;;;;;;;;;1035788;28;20054;-64
2024/01/06 01:15:23;;;;;;;21.48;13.00;;;;;;;;;;1034745;28;20053;-64
2024/01/06 01:15:54;;;;;;;24.23;12.57;;;;;;;;;;1035998;28;20061;-64
2024/01/06 01:16:24;;;;;;;22.90;12.43;;;;;;;;;;1036458;28;20053;-64
2024/01/06 01:16:55;;;;;;;22.88;11.95;;;;;;;;;;1034235;28;20045;-63
2024/01/06 01:17:25;;;;;;;24.40;12.85;;;;;;;;;;1035687;28;20109;-64
2024/01/06 01:17:56;;;;;;;22.55;13.40;;;;;;;;;;1034845;28;20461;-64
2024/01/06 01:18:27;;;;;;;21.40;13.18;;;;;;;;;;1035645;28;20076;-63
2024/01/06 01:18:57;;;;;;;22.70;12.88;;;;;;;;;;1035870;28;20057;-64
2024/01/06 01:19:28;;;;;;;21.73;12.00;;;;;;;;;;1036915;28;20067;-63
2024/01/06 01:19:58;;;;;;;22.88;12.65;;;;;;;;;;1036951;28;20598;-63
2024/01/06 01:20:29;;;;;;;20.88;12.75;;;;;;;;;;1033802;28;20064;-64
2024/01/06 01:20:59;;;;;;;22.70;12.80;;;;;;;;;;1036888;28;20060;-63
2024/01/06 01:21:30;;;;;;;25.38;13.93;;;;;;;;;;1035901;28;20661;-64
2024/01/06 01:22:01;;;;;;;25.58;13.65;;;;;;;;;;1036468;28;20065;-64
2024/01/06 01:22:31;;;;;;;25.13;12.63;;;;;;;;;;1036520;28;20060;-63
2024/01/06 01:23:02;;;;;;;20.92;12.27;;;;;;;;;;1035703;28;20056;-63
2024/01/06 01:23:32;;;;;;;25.05;12.00;;;;;;;;;;1034120;28;20119;-63
2024/01/06 01:24:03;;;;;;;26.45;13.65;;;;;;;;;;1035287;28;20065;-63
2024/01/06 01:24:34;;;;;;;23.17;12.93;;;;;;;;;;1036273;28;20052;-63
2024/01/06 01:25:07;;;;;;;23.30;12.82;;;;;;;;;;1036566;28;20045;-64
2024/01/06 01:25:38;;;;;;;27.23;13.77;;;;;;;;;;1035731;28;20117;-64
2024/01/06 01:26:08;;;;;;;27.67;13.27;;;;;;;;;;1035962;28;20049;-63
2024/01/06 01:26:39;;;;;;;27.25;14.90;;;;;;;;;;1036052;28;20083;-63
2024/01/06 01:27:09;;;;;;;22.60;13.45;;;;;;;;;;1036979;28;20049;-64
2024/01/06 01:27:40;;;;;;;23.83;13.23;;;;;;;;;;1036518;28;20041;-65
2024/01/06 01:28:10;;;;;;;23.50;13.77;;;;;;;;;;1036454;28;20049;-63
2024/01/06 01:28:41;;;;;;;23.42;14.07;;;;;;;;;;1033723;28;20056;-64
2024/01/06 01:29:12;;;;;;;25.60;13.30;;;;;;;;;;1036161;28;20042;-63
2024/01/06 01:29:42;;;;;;;20.02;11.85;;;;;;;;;;1035654;28;20051;-63
2024/01/06 01:30:14;;;;;;;22.98;13.18;;;;;;;;;;1036322;28;20045;-63
2024/01/06 01:30:44;;;;;;;26.58;12.48;;;;;;;;;;1035523;28;20084;-64
2024/01/06 01:31:15;;;;;;;21.70;12.38;;;;;;;;;;1035718;28;20906;-63
2024/01/06 01:31:46;;;;;;;23.50;12.95;;;;;;;;;;1034140;28;20049;-62
2024/01/06 01:32:16;;;;;;;25.08;13.32;;;;;;;;;;1035768;28;20195;-63
2024/01/06 01:32:47;;;;;;;24.75;13.98;;;;;;;;;;1035606;28;20469;-65
2024/01/06 01:33:18;;;;;;;24.42;13.02;;;;;;;;;;1035617;28;20088;-64
2024/01/06 01:33:48;;;;;;;22.17;12.57;;;;;;;;;;1033839;28;20644;-64
2024/01/06 01:34:19;;;;;;;26.27;13.52;;;;;;;;;;1035062;28;20053;-63
2024/01/06 01:34:49;;;;;;;23.35;12.73;;;;;;;;;;1035545;28;20073;-64
2024/01/06 01:35:20;;;;;;;26.35;13.65;;;;;;;;;;1036350;28;20520;-63
2024/01/06 01:35:50;;;;;;;22.67;13.63;;;;;;;;;;1035563;28;20057;-63
2024/01/06 01:36:21;;;;;;;26.17;12.93;;;;;;;;;;1035756;28;20036;-65
2024/01/06 01:36:52;;;;;;;25.10;12.50;;;;;;;;;;1036630;28;20056;-62
2024/01/06 01:37:22;;;;;;;22.83;12.38;;;;;;;;;;1034839;28;20058;-64
2024/01/06 01:37:53;;;;;;;22.55;12.25;;;;;;;;;;1035275;28;20238;-64
2024/01/06 01:38:23;;;;;;;23.48;12.57;;;;;;;;;;1036306;28;20061;-63
2024/01/06 01:38:54;;;;;;;24.95;13.52;;;;;;;;;;1034856;28;20061;-63
2024/01/06 01:39:24;;;;;;;23.70;13.77;;;;;;;;;;1037765;28;20056;-63
2024/01/06 01:39:55;;;;;;;29.15;14.00;;;;;;;;;;1035919;28;20668;-66
2024/01/06 01:40:25;;;;;;;25.25;13.48;;;;;;;;;;1034949;28;20530;-63
2024/01/06 01:40:56;;;;;;;25.48;13.90;;;;;;;;;;1037572;28;20134;-63
2024/01/06 01:41:26;;;;;;;25.95;13.68;;;;;;;;;;1037301;28;20060;-65
2024/01/06 01:41:57;;;;;;;21.77;12.75;;;;;;;;;;1037401;28;20060;-63
2024/01/06 01:42:28;;;;;;;27.17;13.80;;;;;;;;;;1037145;28;20049;-64
2024/01/06 01:42:58;;;;;;;22.50;12.20;;;;;;;;;;1037380;28;20056;-63
2024/01/06 01:43:29;;;;;;;18.65;11.88;;;;;;;;;;1036280;28;20050;-63
2024/01/06 01:43:59;;;;;;;21.95;11.77;;;;;;;;;;1034877;28;20508;-63
2024/01/06 01:44:30;;;;;;;22.38;11.63;;;;;;;;;;1036927;28;20641;-64
2024/01/06 01:45:00;;;;;;;22.63;12.77;;;;;;;;;;1037664;28;20326;-63
2024/01/06 01:45:31;;;;;;;21.42;12.07;;;;;;;;;;1036405;28;20095;-63
2024/01/06 01:46:01;;;;;;;25.27;13.93;;;;;;;;;;1037343;28;20084;-64
2024/01/06 01:46:32;;;;;;;20.60;11.32;;;;;;;;;;1037925;28;20053;-63
2024/01/06 01:47:05;;;;;;;23.67;12.30;;;;;;;;;;1037819;28;20141;-63
2024/01/06 01:47:36;;;;;;;21.00;12.23;;;;;;;;;;1035740;28;20050;-64
2024/01/06 01:48:07;;;;;;;23.10;12.27;;;;;;;;;;1035615;28;20065;-63
2024/01/06 01:48:38;;;;;;;24.20;11.80;;;;;;;;;;1035175;28;20049;-64
2024/01/06 01:49:08;;;;;;;22.23;12.85;;;;;;;;;;1035975;28;20099;-63
2024/01/06 01:49:39;;;;;;;20.70;12.23;;;;;;;;;;1035072;28;20062;-64
2024/01/06 01:50:10;;;;;;;21.20;11.35;;;;;;;;;;1037556;28;20056;-63
2024/01/06 01:50:41;;;;;;;21.38;13.18;;;;;;;;;;1036060;28;20128;-64
2024/01/06 01:51:12;;;;;;;21.00;12.18;;;;;;;;;;1035806;28;20591;-63
2024/01/06 01:51:44;;;;;;;19.15;11.40;;;;;;;;;;1034976;28;20053;-63
2024/01/06 01:52:15;;;;;;;21.50;11.35;;;;;;;;;;1036876;28;20049;-63
2024/01/06 01:52:46;;;;;;;20.85;12.80;;;;;;;;;;1036759;28;20045;-63
2024/01/06 01:53:17;;;;;;;20.52;11.55;;;;;;;;;;1036724;28;20080;-64
2024/01/06 01:53:49;;;;;;;22.40;12.73;;;;;;;;;;1035160;28;20106;-63
2024/01/06 01:54:19;;;;;;;20.88;12.07;;;;;;;;;;1035927;28;20095;-64
2024/01/06 01:54:52;;;;;;;21.15;11.57;;;;;;;;;;1036401;28;20060;-63
2024/01/06 01:55:22;;;;;;;22.48;11.63;;;;;;;;;;1036870;28;20739;-64
2024/01/06 01:55:53;;;;;;;22.13;12.23;;;;;;;;;;1035936;28;21011;-63
2024/01/06 01:56:25;;;;;;;21.67;11.63;;;;;;;;;;1036996;28;20045;-64
2024/01/06 01:56:56;;;;;;;19.88;11.48;;;;;;;;;;1035213;28;20064;-63
2024/01/06 01:57:27;;;;;;;20.20;12.10;;;;;;;;;;1035678;28;20064;-63
2024/01/06 01:57:58;;;;;;;24.05;12.80;;;;;;;;;;1036523;28;20166;-63
2024/01/06 01:58:29;;;;;;;24.58;12.07;;;;;;;;;;1037469;28;20101;-64
2024/01/06 01:59:03;;;;;;;21.45;12.13;;;;;;;;;;1034964;28;20076;-63
2024/01/06 01:59:33;;;;;;;21.67;12.25;;;;;;;;;;1035800;28;20099;-63
2024/01/06 02:00:04;;;;;;;20.38;12.38;;;;;;;;;;1037385;28;20104;-63
2024/01/06 02:00:35;;;;;;;20.42;11.77;;;;;;;;;;1036263;28;20775;-64
2024/01/06 02:01:07;;;;;;;21.13;12.77;;;;;;;;;;1036247;28;20516;-63
2024/01/06 02:01:39;;;;;;;18.75;11.27;;;;;;;;;;1033537;28;20064;-63
2024/01/06 02:02:10;;;;;;;20.67;11.75;;;;;;;;;;1035297;28;20505;-64
2024/01/06 02:02:41;;;;;;;17.63;11.75;;;;;;;;;;1034521;28;20049;-64
2024/01/06 02:03:13;;;;;;;22.17;11.32;;;;;;;;;;1033925;28;20068;-64
2024/01/06 02:03:43;;;;;;;22.67;11.90;;;;;;;;;;1034383;28;20042;-66
2024/01/06 02:04:14;;;;;;;21.77;12.48;;;;;;;;;;1034692;28;20176;-64
2024/01/06 02:04:47;;;;;;;20.50;12.02;;;;;;;;;;1034583;28;20046;-63
2024/01/06 02:05:18;;;;;;;19.02;12.23;;;;;;;;;;1035830;28;20049;-63
2024/01/06 02:05:49;;;;;;;20.75;11.55;;;;;;;;;;1033900;28;20141;-64
2024/01/06 02:06:19;;;;;;;18.05;10.90;;;;;;;;;;1034756;28;20448;-63
2024/01/06 02:06:50;;;;;;;25.00;11.90;;;;;;;;;;1034510;28;20049;-63
2024/01/06 02:07:20;;;;;;;21.45;11.10;;;;;;;;;;1035789;28;20049;-64
2024/01/06 02:07:51;;;;;;;22.15;11.35;;;;;;;;;;1037718;28;20058;-64
2024/01/06 02:08:22;;;;;;;22.40;12.43;;;;;;;;;;1036015;28;20060;-64
2024/01/06 02:08:53;;;;;;;22.88;11.85;;;;;;;;;;1033474;28;20061;-63
2024/01/06 02:09:27;;;;;;;18.73;11.50;;;;;;;;;;1034221;28;20042;-64
2024/01/06 02:09:57;;;;;;;22.73;12.00;;;;;;;;;;1034187;28;20056;-64
2024/01/06 02:10:29;;;;;;;21.42;11.63;;;;;;;;;;1034807;28;20073;-64
2024/01/06 02:10:59;;;;;;;21.88;11.90;;;;;;;;;;1034884;28;20140;-64
2024/01/06 02:11:29;;;;;;;21.42;12.05;;;;;;;;;;1035232;28;20440;-64
2024/01/06 02:12:00;;;;;;;20.50;10.95;;;;;;;;;;1035458;28;20540;-64
2024/01/06 02:12:30;;;;;;;23.27;12.20;;;;;;;;;;1036217;28;20064;-64
2024/01/06 02:13:09;;;;;;;20.55;11.43;;;;;;;;;;1036554;28;20128;-63
2024/01/06 02:13:40;;;;;;;20.38;10.80;;;;;;;;;;1035134;28;20148;-64
2024/01/06 02:14:10;;;;;;;21.00;11.23;;;;;;;;;;1035277;28;20184;-63
2024/01/06 02:14:43;;;;;;;18.73;10.45;;;;;;;;;;1035330;28;20068;-63
2024/01/06 02:15:13;;;;;;;21.17;11.43;;;;;;;;;;1033545;28;20060;-64
2024/01/06 02:15:43;;;;;;;20.67;11.65;;;;;;;;;;1036385;28;20088;-64
2024/01/06 02:16:14;;;;;;;21.25;11.80;;;;;;;;;;1036823;28;20106;-64
2024/01/06 02:16:45;;;;;;;17.33;11.18;;;;;;;;;;1035961;28;20045;-64
2024/01/06 02:17:15;;;;;;;18.58;10.80;;;;;;;;;;1034764;28;20069;-64
2024/01/06 02:17:46;;;;;;;22.38;11.88;;;;;;;;;;1036440;28;20063;-63
2024/01/06 02:18:16;;;;;;;22.48;12.27;;;;;;;;;;1037630;28;20126;-63
2024/01/06 02:18:47;;;;;;;20.05;12.00;;;;;;;;;;1034482;28;20042;-62
2024/01/06 02:19:18;;;;;;;18.90;10.63;;;;;;;;;;1033459;28;20137;-63
2024/01/06 02:19:48;;;;;;;18.98;10.60;;;;;;;;;;1033689;28;20068;-63
2024/01/06 02:20:20;;;;;;;23.73;12.30;;;;;;;;;;1036352;28;20053;-63
2024/01/06 02:20:54;;;;;;;19.58;11.18;;;;;;;;;;1034444;28;20058;-63
2024/01/06 02:21:27;;;;;;;20.02;11.25;;;;;;;;;;1034900;28;20073;-65
2024/01/06 02:21:58;;;;;;;21.17;11.20;;;;;;;;;;1034324;28;20149;-65
2024/01/06 02:22:28;;;;;;;21.38;10.95;;;;;;;;;;1035620;28;20061;-64
2024/01/06 02:23:00;;;;;;;25.30;12.43;;;;;;;;;;1035210;28;20168;-64
2024/01/06 02:23:30;;;;;;;20.80;11.30;;;;;;;;;;1035033;28;20702;-65
2024/01/06 02:24:01;;;;;;;21.42;12.10;;;;;;;;;;1034688;28;20545;-66
2024/01/06 02:24:32;;;;;;;18.25;11.27;;;;;;;;;;1034734;28;20425;-65
2024/01/06 02:25:11;;;;;;;18.95;10.73;;;;;;;;;;1035012;28;20083;-62
2024/01/06 02:25:42;;;;;;;17.95;10.70;;;;;;;;;;1035711;28;20441;-65
2024/01/06 02:26:14;;;;;;;19.30;11.10;;;;;;;;;;1035460;28;20422;-66
2024/01/06 02:26:45;;;;;;;18.70;11.10;;;;;;;;;;1035606;28;20041;-65
2024/01/06 02:27:15;;;;;;;18.98;11.10;;;;;;;;;;1036726;28;20049;-65
2024/01/06 02:27:46;;;;;;;22.00;11.52;;;;;;;;;;1036280;28;20653;-65
2024/01/06 02:28:17;;;;;;;21.20;11.88;;;;;;;;;;1035410;28;20057;-66
2024/01/06 02:28:49;;;;;;;21.38;11.60;;;;;;;;;;1035938;28;20502;-65
2024/01/06 02:29:19;;;;;;;20.05;11.00;;;;;;;;;;1034835;28;20054;-65
2024/01/06 02:29:50;;;;;;;21.50;11.65;;;;;;;;;;1035494;28;20137;-65
2024/01/06 02:30:20;;;;;;;19.50;11.20;;;;;;;;;;1034337;28;20053;-65
2024/01/06 02:30:51;;;;;;;19.10;10.82;;;;;;;;;;1034897;28;20054;-65
2024/01/06 02:31:22;;;;;;;19.17;11.73;;;;;;;;;;1034906;28;20572;-64
2024/01/06 02:31:52;;;;;;;20.65;12.40;;;;;;;;;;1035727;28;20167;-65
2024/01/06 02:32:23;;;;;;;20.50;12.32;;;;;;;;;;1034427;28;20046;-65
2024/01/06 02:32:53;;;;;;;22.27;11.70;;;;;;;;;;1034352;28;20073;-65
2024/01/06 02:33:24;;;;;;;20.98;11.82;;;;;;;;;;1035636;28;20053;-66
2024/01/06 02:33:54;;;;;;;16.70;11.02;;;;;;;;;;1034213;28;20073;-64
2024/01/06 02:34:25;;;;;;;17.95;10.43;;;;;;;;;;1034619;28;20054;-65
2024/01/06 02:34:55;;;;;;;22.05;12.05;;;;;;;;;;1034609;28;20057;-65
2024/01/06 02:35:26;;;;;;;18.63;11.43;;;;;;;;;;1034542;28;20056;-65
2024/01/06 02:35:57;;;;;;;19.77;11.95;;;;;;;;;;1035588;28;20065;-65
2024/01/06 02:36:27;;;;;;;22.13;11.55;;;;;;;;;;1036126;28;20175;-65
2024/01/06 02:36:58;;;;;;;17.67;10.45;;;;;;;;;;1034001;28;20521;-64
2024/01/06 02:37:28;;;;;;;19.17;11.05;;;;;;;;;;1034858;28;20113;-65
2024/01/06 02:37:59;;;;;;;16.05;10.57;;;;;;;;;;1034807;28;20096;-65
2024/01/06 02:38:30;;;;;;;22.13;11.85;;;;;;;;;;1034279;28;20050;-65
2024/01/06 02:39:00;;;;;;;23.42;12.10;;;;;;;;;;1035060;28;20056;-65
2024/01/06 02:39:31;;;;;;;18.52;10.88;;;;;;;;;;1034370;28;20042;-65
2024/01/06 02:40:01;;;;;;;21.98;11.73;;;;;;;;;;1034945;28;20050;-66
2024/01/06 02:40:32;;;;;;;17.00;10.65;;;;;;;;;;1033503;28;20140;-64
2024/01/06 02:41:03;;;;;;;18.17;10.85;;;;;;;;;;1034787;28;20812;-65
2024/01/06 02:41:33;;;;;;;20.73;10.43;;;;;;;;;;1035455;28;20053;-65
2024/01/06 02:42:04;;;;;;;18.95;10.70;;;;;;;;;;1035890;28;20513;-65
2024/01/06 02:42:35;;;;;;;19.60;10.73;;;;;;;;;;1034403;28;20061;-65
2024/01/06 02:43:05;;;;;;;21.83;11.75;;;;;;;;;;1030510;28;20042;-65
2024/01/06 02:43:36;;;;;;;19.30;11.55;;;;;;;;;;1029916;28;20061;-65
2024/01/06 02:44:08;;;;;;;21.00;11.07;;;;;;;;;;1030616;28;20061;-65
2024/01/06 02:44:39;;;;;;;19.50;10.27;;;;;;;;;;1030026;28;20151;-65
2024/01/06 02:45:09;;;;;;;17.85;10.88;;;;;;;;;;1029552;28;20104;-65
2024/01/06 02:45:40;;;;;;;19.38;10.43;;;;;;;;;;1027906;28;20686;-65
2024/01/06 02:46:10;;;;;;;16.98;10.90;;;;;;;;;;1030605;28;20049;-65
2024/01/06 02:46:41;;;;;;;16.38;10.27;;;;;;;;;;1030899;28;20050;-65
2024/01/06 02:47:11;;;;;;;20.13;11.02;;;;;;;;;;1031755;28;20227;-65
2024/01/06 02:47:42;;;;;;;26.20;12.77;;;;;;;;;;1029888;28;20077;-64
2024/01/06 02:48:12;;;;;;;20.00;11.07;;;;;;;;;;1031013;28;20050;-65
2024/01/06 02:48:43;;;;;;;18.98;10.65;;;;;;;;;;1032832;28;20084;-65
2024/01/06 02:49:14;;;;;;;17.90;10.27;;;;;;;;;;1030647;28;20050;-65
2024/01/06 02:49:44;;;;;;;20.08;10.93;;;;;;;;;;1030971;28;20054;-65
2024/01/06 02:50:15;;;;;;;17.48;10.93;;;;;;;;;;1030899;28;20042;-64
2024/01/06 02:50:45;;;;;;;22.30;11.82;;;;;;;;;;1029670;28;20062;-65
2024/01/06 02:51:16;;;;;;;19.92;10.18;;;;;;;;;;1029868;28;20053;-65
2024/01/06 02:51:46;;;;;;;18.55;10.23;;;;;;;;;;1031950;28;20924;-65
2024/01/06 02:52:17;;;;;;;17.80;10.13;;;;;;;;;;1031771;28;20153;-65
2024/01/06 02:52:47;;;;;;;19.42;11.68;;;;;;;;;;1031993;28;20057;-65
2024/01/06 02:53:18;;;;;;;17.55;9.25;;;;;;;;;;1034676;28;20053;-65
2024/01/06 02:53:48;;;;;;;18.95;10.65;;;;;;;;;;1035238;28;20061;-65
2024/01/06 02:54:19;;;;;;;17.10;9.82;;;;;;;;;;1035445;28;20061;-65
2024/01/06 02:54:49;;;;;;;18.15;11.40;;;;;;;;;;1035579;28;20068;-65
2024/01/06 02:55:21;;;;;;;17.73;10.15;;;;;;;;;;1036994;28;20064;-65
2024/01/06 02:55:52;;;;;;;18.17;11.13;;;;;;;;;;1035420;28;20050;-65
2024/01/06 02:56:23;;;;;;;19.23;11.48;;;;;;;;;;1034454;28;20053;-65
2024/01/06 02:56:53;;;;;;;20.13;10.20;;;;;;;;;;1035479;28;20540;-66
2024/01/06 02:57:24;;;;;;;18.42;10.25;;;;;;;;;;1035204;28;20606;-64
2024/01/06 02:57:54;;;;;;;19.88;11.10;;;;;;;;;;1034089;28;20045;-64
2024/01/06 02:58:25;;;;;;;17.70;10.88;;;;;;;;;;1033724;28;20099;-65
2024/01/06 02:58:55;;;;;;;19.92;10.75;;;;;;;;;;1033753;28;20059;-65
2024/01/06 02:59:26;;;;;;;17.98;10.50;;;;;;;;;;1036304;28;20059;-65
2024/01/06 02:59:57;;;;;;;17.35;10.63;;;;;;;;;;1037273;28;21011;-65